In Rescue
 
Open Full Screen Window  High Contrast Mode
Wind Gusting 00 knots
07
July 25, 2021 7:10 AM CDT
Weather Information
Wind Direction
  190 °
Wind Speed
  07 kt (8 mph)
Wind Gust
  00 kt (0 mph)
Altimeter
29.99 in
Visibility
10 SM
Temperature
13° C
55° F
Dewpoint
11° C
52° F
Humidity
88%
1hr Rain Fall
00.00 in.
24hr Rain Fall
00.00 in.
Sky Condition
Clear
VFR

METAR K3N8 251210Z AUTO 19007KT 10SM CLR 13/11 A2999 RMK AO2 T01300110

FAA Disclaimer: The data displayed is for advisory purposes only and is not to be used for flight planning or operations.